sensor_id;sensor_type;location;lat;lon;timestamp;P1;durP1;ratioP1;P2;durP2;ratioP2
12135;SDS011;6131;56.420;15.548;2022-11-15T00:02:22;7.93;;;5.50;;
12135;SDS011;6131;56.420;15.548;2022-11-15T00:04:47;6.83;;;5.10;;
12135;SDS011;6131;56.420;15.548;2022-11-15T00:07:13;8.53;;;5.47;;
12135;SDS011;6131;56.420;15.548;2022-11-15T00:09:39;8.47;;;5.60;;
12135;SDS011;6131;56.420;15.548;2022-11-15T00:12:05;8.23;;;5.77;;
12135;SDS011;6131;56.420;15.548;2022-11-15T00:14:31;9.17;;;6.10;;
12135;SDS011;6131;56.420;15.548;2022-11-15T00:16:57;8.50;;;5.90;;
12135;SDS011;6131;56.420;15.548;2022-11-15T00:19:23;9.13;;;6.10;;
12135;SDS011;6131;56.420;15.548;2022-11-15T00:21:49;7.50;;;6.00;;
12135;SDS011;6131;56.420;15.548;2022-11-15T00:24:15;8.50;;;6.10;;
12135;SDS011;6131;56.420;15.548;2022-11-15T00:26:41;7.67;;;6.40;;
12135;SDS011;6131;56.420;15.548;2022-11-15T00:29:07;10.70;;;5.90;;
12135;SDS011;6131;56.420;15.548;2022-11-15T00:31:33;9.87;;;6.13;;
12135;SDS011;6131;56.420;15.548;2022-11-15T00:33:59;9.67;;;5.57;;
12135;SDS011;6131;56.420;15.548;2022-11-15T00:36:25;9.27;;;6.60;;
12135;SDS011;6131;56.420;15.548;2022-11-15T00:38:51;8.23;;;5.70;;
12135;SDS011;6131;56.420;15.548;2022-11-15T00:41:17;9.33;;;6.37;;
12135;SDS011;6131;56.420;15.548;2022-11-15T00:43:43;10.43;;;6.23;;
12135;SDS011;6131;56.420;15.548;2022-11-15T00:46:09;9.00;;;5.77;;
12135;SDS011;6131;56.420;15.548;2022-11-15T00:48:35;10.03;;;5.90;;
12135;SDS011;6131;56.420;15.548;2022-11-15T00:51:01;9.07;;;6.33;;
12135;SDS011;6131;56.420;15.548;2022-11-15T00:53:27;9.40;;;6.13;;
12135;SDS011;6131;56.420;15.548;2022-11-15T00:55:53;10.80;;;6.13;;
12135;SDS011;6131;56.420;15.548;2022-11-15T00:58:19;8.30;;;5.70;;
12135;SDS011;6131;56.420;15.548;2022-11-15T01:00:45;7.43;;;5.73;;
12135;SDS011;6131;56.420;15.548;2022-11-15T01:03:11;12.80;;;6.67;;
12135;SDS011;6131;56.420;15.548;2022-11-15T01:05:37;8.37;;;5.97;;
12135;SDS011;6131;56.420;15.548;2022-11-15T01:08:03;10.53;;;6.40;;
12135;SDS011;6131;56.420;15.548;2022-11-15T01:10:29;9.50;;;5.70;;
12135;SDS011;6131;56.420;15.548;2022-11-15T01:12:55;11.00;;;6.33;;
12135;SDS011;6131;56.420;15.548;2022-11-15T01:15:21;11.30;;;5.77;;
12135;SDS011;6131;56.420;15.548;2022-11-15T01:17:47;10.83;;;6.10;;
12135;SDS011;6131;56.420;15.548;2022-11-15T01:20:13;10.70;;;5.83;;
12135;SDS011;6131;56.420;15.548;2022-11-15T01:22:39;10.37;;;5.50;;
12135;SDS011;6131;56.420;15.548;2022-11-15T01:25:05;10.07;;;6.33;;
12135;SDS011;6131;56.420;15.548;2022-11-15T01:27:31;8.97;;;5.87;;
12135;SDS011;6131;56.420;15.548;2022-11-15T01:29:57;6.17;;;5.37;;
12135;SDS011;6131;56.420;15.548;2022-11-15T01:32:23;8.37;;;5.80;;
12135;SDS011;6131;56.420;15.548;2022-11-15T01:34:49;7.77;;;5.43;;
12135;SDS011;6131;56.420;15.548;2022-11-15T01:37:15;8.73;;;6.43;;
12135;SDS011;6131;56.420;15.548;2022-11-15T01:39:41;7.50;;;6.10;;
12135;SDS011;6131;56.420;15.548;2022-11-15T01:42:11;8.07;;;5.50;;
12135;SDS011;6131;56.420;15.548;2022-11-15T01:44:42;7.50;;;5.90;;
12135;SDS011;6131;56.420;15.548;2022-11-15T01:47:17;9.73;;;5.93;;
12135;SDS011;6131;56.420;15.548;2022-11-15T01:52:20;10.07;;;5.97;;
12135;SDS011;6131;56.420;15.548;2022-11-15T01:54:48;9.20;;;6.60;;
12135;SDS011;6131;56.420;15.548;2022-11-15T01:57:15;11.73;;;6.93;;
12135;SDS011;6131;56.420;15.548;2022-11-15T01:59:42;7.20;;;6.27;;
12135;SDS011;6131;56.420;15.548;2022-11-15T02:02:09;12.17;;;6.97;;
12135;SDS011;6131;56.420;15.548;2022-11-15T02:04:40;10.27;;;7.10;;
12135;SDS011;6131;56.420;15.548;2022-11-15T02:07:06;10.00;;;6.60;;
12135;SDS011;6131;56.420;15.548;2022-11-15T02:09:35;9.27;;;6.40;;
12135;SDS011;6131;56.420;15.548;2022-11-15T02:12:01;10.73;;;7.20;;
12135;SDS011;6131;56.420;15.548;2022-11-15T02:14:27;8.57;;;6.93;;
12135;SDS011;6131;56.420;15.548;2022-11-15T02:22:14;7.83;;;6.13;;
12135;SDS011;6131;56.420;15.548;2022-11-15T02:30:19;9.70;;;6.83;;
12135;SDS011;6131;56.420;15.548;2022-11-15T02:37:45;7.57;;;5.40;;
12135;SDS011;6131;56.420;15.548;2022-11-15T02:40:19;10.70;;;6.63;;
12135;SDS011;6131;56.420;15.548;2022-11-15T02:42:49;11.97;;;6.43;;
12135;SDS011;6131;56.420;15.548;2022-11-15T02:45:36;9.27;;;5.73;;
12135;SDS011;6131;56.420;15.548;2022-11-15T02:48:03;11.53;;;6.97;;
12135;SDS011;6131;56.420;15.548;2022-11-15T02:50:29;8.40;;;6.20;;
12135;SDS011;6131;56.420;15.548;2022-11-15T02:52:57;8.57;;;6.17;;
12135;SDS011;6131;56.420;15.548;2022-11-15T02:55:27;10.47;;;6.80;;
12135;SDS011;6131;56.420;15.548;2022-11-15T03:00:30;10.80;;;7.33;;
12135;SDS011;6131;56.420;15.548;2022-11-15T03:09:17;12.03;;;7.00;;
12135;SDS011;6131;56.420;15.548;2022-11-15T03:11:37;9.83;;;6.60;;
12135;SDS011;6131;56.420;15.548;2022-11-15T03:21:46;11.50;;;7.40;;
12135;SDS011;6131;56.420;15.548;2022-11-15T03:24:13;9.10;;;6.13;;
12135;SDS011;6131;56.420;15.548;2022-11-15T03:26:40;10.90;;;6.70;;
12135;SDS011;6131;56.420;15.548;2022-11-15T03:29:11;10.07;;;7.83;;
12135;SDS011;6131;56.420;15.548;2022-11-15T03:31:40;9.70;;;7.40;;
12135;SDS011;6131;56.420;15.548;2022-11-15T03:36:42;14.83;;;7.43;;
12135;SDS011;6131;56.420;15.548;2022-11-15T03:39:09;9.43;;;6.67;;
12135;SDS011;6131;56.420;15.548;2022-11-15T03:41:50;12.37;;;6.73;;
12135;SDS011;6131;56.420;15.548;2022-11-15T03:44:34;11.47;;;7.87;;
12135;SDS011;6131;56.420;15.548;2022-11-15T03:47:20;9.07;;;6.80;;
12135;SDS011;6131;56.420;15.548;2022-11-15T03:49:51;11.63;;;6.87;;
12135;SDS011;6131;56.420;15.548;2022-11-15T03:52:19;15.13;;;8.00;;
12135;SDS011;6131;56.420;15.548;2022-11-15T03:55:03;12.63;;;8.00;;
12135;SDS011;6131;56.420;15.548;2022-11-15T03:57:30;10.07;;;7.30;;
12135;SDS011;6131;56.420;15.548;2022-11-15T03:59:56;10.27;;;6.43;;
12135;SDS011;6131;56.420;15.548;2022-11-15T04:02:22;12.50;;;7.33;;
12135;SDS011;6131;56.420;15.548;2022-11-15T04:04:48;12.20;;;7.70;;
12135;SDS011;6131;56.420;15.548;2022-11-15T04:07:14;10.17;;;7.30;;
12135;SDS011;6131;56.420;15.548;2022-11-15T04:09:40;11.27;;;7.73;;
12135;SDS011;6131;56.420;15.548;2022-11-15T04:12:24;12.83;;;7.67;;
12135;SDS011;6131;56.420;15.548;2022-11-15T04:14:57;9.30;;;6.83;;
12135;SDS011;6131;56.420;15.548;2022-11-15T04:17:54;9.20;;;7.20;;
12135;SDS011;6131;56.420;15.548;2022-11-15T04:23:04;10.47;;;7.10;;
12135;SDS011;6131;56.420;15.548;2022-11-15T04:25:52;10.90;;;6.93;;
12135;SDS011;6131;56.420;15.548;2022-11-15T04:28:19;10.20;;;6.50;;
12135;SDS011;6131;56.420;15.548;2022-11-15T04:30:45;11.67;;;6.93;;
12135;SDS011;6131;56.420;15.548;2022-11-15T04:33:12;9.77;;;6.83;;
12135;SDS011;6131;56.420;15.548;2022-11-15T04:35:38;10.23;;;7.13;;
12135;SDS011;6131;56.420;15.548;2022-11-15T04:38:05;9.40;;;6.67;;
12135;SDS011;6131;56.420;15.548;2022-11-15T04:40:31;11.83;;;6.97;;
12135;SDS011;6131;56.420;15.548;2022-11-15T04:42:57;13.87;;;6.93;;
12135;SDS011;6131;56.420;15.548;2022-11-15T04:45:23;11.53;;;6.50;;
12135;SDS011;6131;56.420;15.548;2022-11-15T04:47:49;9.47;;;6.63;;
12135;SDS011;6131;56.420;15.548;2022-11-15T04:50:15;8.67;;;6.57;;
12135;SDS011;6131;56.420;15.548;2022-11-15T04:52:42;10.60;;;7.23;;
12135;SDS011;6131;56.420;15.548;2022-11-15T04:55:09;9.50;;;6.77;;
12135;SDS011;6131;56.420;15.548;2022-11-15T04:57:36;13.10;;;7.90;;
12135;SDS011;6131;56.420;15.548;2022-11-15T05:00:05;10.77;;;7.27;;
12135;SDS011;6131;56.420;15.548;2022-11-15T05:02:32;11.97;;;7.30;;
12135;SDS011;6131;56.420;15.548;2022-11-15T05:05:17;11.07;;;7.10;;
12135;SDS011;6131;56.420;15.548;2022-11-15T05:07:43;11.10;;;6.93;;
12135;SDS011;6131;56.420;15.548;2022-11-15T05:10:09;11.67;;;7.30;;
12135;SDS011;6131;56.420;15.548;2022-11-15T05:12:35;9.63;;;6.97;;
12135;SDS011;6131;56.420;15.548;2022-11-15T05:15:01;11.43;;;7.13;;
12135;SDS011;6131;56.420;15.548;2022-11-15T05:17:27;8.33;;;6.57;;
12135;SDS011;6131;56.420;15.548;2022-11-15T05:19:53;9.70;;;6.80;;
12135;SDS011;6131;56.420;15.548;2022-11-15T05:22:19;12.43;;;7.30;;
12135;SDS011;6131;56.420;15.548;2022-11-15T05:24:46;10.13;;;7.07;;
12135;SDS011;6131;56.420;15.548;2022-11-15T05:27:12;10.33;;;6.53;;
12135;SDS011;6131;56.420;15.548;2022-11-15T05:29:37;10.77;;;7.33;;
12135;SDS011;6131;56.420;15.548;2022-11-15T05:32:05;13.43;;;7.43;;
12135;SDS011;6131;56.420;15.548;2022-11-15T05:34:31;9.43;;;6.60;;
12135;SDS011;6131;56.420;15.548;2022-11-15T05:36:57;9.27;;;6.43;;
12135;SDS011;6131;56.420;15.548;2022-11-15T05:39:24;8.23;;;6.07;;
12135;SDS011;6131;56.420;15.548;2022-11-15T05:41:58;11.53;;;6.90;;
12135;SDS011;6131;56.420;15.548;2022-11-15T05:44:26;10.53;;;6.50;;
12135;SDS011;6131;56.420;15.548;2022-11-15T05:46:52;10.57;;;6.00;;
12135;SDS011;6131;56.420;15.548;2022-11-15T05:49:21;10.67;;;6.03;;
12135;SDS011;6131;56.420;15.548;2022-11-15T05:51:49;9.30;;;6.10;;
12135;SDS011;6131;56.420;15.548;2022-11-15T05:54:16;8.77;;;5.83;;
12135;SDS011;6131;56.420;15.548;2022-11-15T05:56:42;10.63;;;5.70;;
12135;SDS011;6131;56.420;15.548;2022-11-15T05:59:08;9.13;;;6.70;;
12135;SDS011;6131;56.420;15.548;2022-11-15T06:01:35;8.70;;;5.67;;
12135;SDS011;6131;56.420;15.548;2022-11-15T06:04:01;8.27;;;6.03;;
12135;SDS011;6131;56.420;15.548;2022-11-15T06:06:27;9.30;;;5.40;;
12135;SDS011;6131;56.420;15.548;2022-11-15T06:08:53;9.00;;;6.00;;
12135;SDS011;6131;56.420;15.548;2022-11-15T06:11:19;10.03;;;6.27;;
12135;SDS011;6131;56.420;15.548;2022-11-15T06:13:45;9.17;;;5.77;;
12135;SDS011;6131;56.420;15.548;2022-11-15T06:16:11;9.77;;;5.93;;
12135;SDS011;6131;56.420;15.548;2022-11-15T06:18:38;12.07;;;6.87;;
12135;SDS011;6131;56.420;15.548;2022-11-15T06:21:04;9.50;;;5.97;;
12135;SDS011;6131;56.420;15.548;2022-11-15T06:23:31;9.83;;;6.07;;
12135;SDS011;6131;56.420;15.548;2022-11-15T06:25:58;11.30;;;6.73;;
12135;SDS011;6131;56.420;15.548;2022-11-15T06:28:24;9.27;;;5.87;;
12135;SDS011;6131;56.420;15.548;2022-11-15T06:30:50;8.70;;;6.43;;
12135;SDS011;6131;56.420;15.548;2022-11-15T06:33:16;8.47;;;6.33;;
12135;SDS011;6131;56.420;15.548;2022-11-15T06:35:42;11.13;;;6.53;;
12135;SDS011;6131;56.420;15.548;2022-11-15T06:38:09;8.87;;;6.07;;
12135;SDS011;6131;56.420;15.548;2022-11-15T06:40:35;9.20;;;6.60;;
12135;SDS011;6131;56.420;15.548;2022-11-15T06:43:02;8.97;;;6.00;;
12135;SDS011;6131;56.420;15.548;2022-11-15T06:45:29;7.87;;;5.83;;
12135;SDS011;6131;56.420;15.548;2022-11-15T06:47:55;7.03;;;5.30;;
12135;SDS011;6131;56.420;15.548;2022-11-15T06:50:21;10.17;;;5.63;;
12135;SDS011;6131;56.420;15.548;2022-11-15T06:52:47;10.07;;;5.40;;
12135;SDS011;6131;56.420;15.548;2022-11-15T06:55:13;7.37;;;5.40;;
12135;SDS011;6131;56.420;15.548;2022-11-15T06:57:46;8.37;;;4.87;;
12135;SDS011;6131;56.420;15.548;2022-11-15T07:00:12;7.37;;;5.70;;
12135;SDS011;6131;56.420;15.548;2022-11-15T07:02:39;6.57;;;5.23;;
12135;SDS011;6131;56.420;15.548;2022-11-15T07:05:05;7.73;;;5.77;;
12135;SDS011;6131;56.420;15.548;2022-11-15T07:07:31;7.77;;;5.20;;
12135;SDS011;6131;56.420;15.548;2022-11-15T07:09:57;9.57;;;5.70;;
12135;SDS011;6131;56.420;15.548;2022-11-15T07:12:23;7.57;;;5.43;;
12135;SDS011;6131;56.420;15.548;2022-11-15T07:14:49;8.23;;;5.67;;
12135;SDS011;6131;56.420;15.548;2022-11-15T07:17:15;7.93;;;5.77;;
12135;SDS011;6131;56.420;15.548;2022-11-15T07:19:41;8.97;;;5.57;;
12135;SDS011;6131;56.420;15.548;2022-11-15T07:22:06;9.27;;;5.83;;
12135;SDS011;6131;56.420;15.548;2022-11-15T07:24:32;8.00;;;5.53;;
12135;SDS011;6131;56.420;15.548;2022-11-15T07:26:58;7.93;;;5.63;;
12135;SDS011;6131;56.420;15.548;2022-11-15T07:29:24;8.13;;;5.53;;
12135;SDS011;6131;56.420;15.548;2022-11-15T07:31:50;6.83;;;4.90;;
12135;SDS011;6131;56.420;15.548;2022-11-15T07:34:16;7.47;;;5.17;;
12135;SDS011;6131;56.420;15.548;2022-11-15T07:36:42;6.73;;;4.70;;
12135;SDS011;6131;56.420;15.548;2022-11-15T07:39:08;8.37;;;4.97;;
12135;SDS011;6131;56.420;15.548;2022-11-15T07:41:34;6.20;;;4.83;;
12135;SDS011;6131;56.420;15.548;2022-11-15T07:44:00;9.00;;;5.57;;
12135;SDS011;6131;56.420;15.548;2022-11-15T07:46:27;7.40;;;5.40;;
12135;SDS011;6131;56.420;15.548;2022-11-15T07:48:53;8.67;;;4.90;;
12135;SDS011;6131;56.420;15.548;2022-11-15T07:51:19;9.50;;;5.17;;
12135;SDS011;6131;56.420;15.548;2022-11-15T07:53:45;8.33;;;5.73;;
12135;SDS011;6131;56.420;15.548;2022-11-15T07:56:11;5.97;;;4.80;;
12135;SDS011;6131;56.420;15.548;2022-11-15T07:58:37;7.23;;;5.13;;
12135;SDS011;6131;56.420;15.548;2022-11-15T08:01:04;7.33;;;5.30;;
12135;SDS011;6131;56.420;15.548;2022-11-15T08:03:30;8.47;;;5.47;;
12135;SDS011;6131;56.420;15.548;2022-11-15T08:05:57;7.70;;;5.63;;
12135;SDS011;6131;56.420;15.548;2022-11-15T08:08:23;7.47;;;5.17;;
12135;SDS011;6131;56.420;15.548;2022-11-15T08:10:49;6.50;;;4.60;;
12135;SDS011;6131;56.420;15.548;2022-11-15T08:13:15;8.63;;;5.00;;
12135;SDS011;6131;56.420;15.548;2022-11-15T08:15:41;7.27;;;4.90;;
12135;SDS011;6131;56.420;15.548;2022-11-15T08:18:12;8.73;;;5.20;;
12135;SDS011;6131;56.420;15.548;2022-11-15T08:20:38;7.27;;;5.20;;
12135;SDS011;6131;56.420;15.548;2022-11-15T08:23:04;7.97;;;4.87;;
12135;SDS011;6131;56.420;15.548;2022-11-15T08:25:31;6.77;;;5.10;;
12135;SDS011;6131;56.420;15.548;2022-11-15T08:28:00;7.30;;;5.10;;
12135;SDS011;6131;56.420;15.548;2022-11-15T08:30:27;5.13;;;4.17;;
12135;SDS011;6131;56.420;15.548;2022-11-15T08:32:53;5.37;;;4.27;;
12135;SDS011;6131;56.420;15.548;2022-11-15T08:35:20;7.10;;;5.07;;
12135;SDS011;6131;56.420;15.548;2022-11-15T08:37:46;5.63;;;4.37;;
12135;SDS011;6131;56.420;15.548;2022-11-15T08:40:12;8.40;;;4.67;;
12135;SDS011;6131;56.420;15.548;2022-11-15T08:42:39;10.00;;;4.70;;
12135;SDS011;6131;56.420;15.548;2022-11-15T08:45:05;6.90;;;4.87;;
12135;SDS011;6131;56.420;15.548;2022-11-15T08:47:31;6.90;;;4.70;;
12135;SDS011;6131;56.420;15.548;2022-11-15T08:49:57;6.30;;;4.20;;
12135;SDS011;6131;56.420;15.548;2022-11-15T08:52:23;6.07;;;4.87;;
12135;SDS011;6131;56.420;15.548;2022-11-15T08:54:49;5.87;;;4.13;;
12135;SDS011;6131;56.420;15.548;2022-11-15T08:57:15;5.40;;;4.17;;
12135;SDS011;6131;56.420;15.548;2022-11-15T08:59:41;4.67;;;3.93;;
12135;SDS011;6131;56.420;15.548;2022-11-15T09:02:11;5.30;;;3.83;;
12135;SDS011;6131;56.420;15.548;2022-11-15T09:04:38;6.43;;;4.10;;
12135;SDS011;6131;56.420;15.548;2022-11-15T09:07:04;5.20;;;3.87;;
12135;SDS011;6131;56.420;15.548;2022-11-15T09:09:30;6.80;;;4.20;;
12135;SDS011;6131;56.420;15.548;2022-11-15T09:11:56;5.53;;;4.17;;
12135;SDS011;6131;56.420;15.548;2022-11-15T09:14:22;5.90;;;3.93;;
12135;SDS011;6131;56.420;15.548;2022-11-15T09:16:48;4.90;;;4.30;;
12135;SDS011;6131;56.420;15.548;2022-11-15T09:19:14;6.13;;;4.03;;
12135;SDS011;6131;56.420;15.548;2022-11-15T09:21:40;5.60;;;3.87;;
12135;SDS011;6131;56.420;15.548;2022-11-15T09:24:06;5.10;;;3.97;;
12135;SDS011;6131;56.420;15.548;2022-11-15T09:26:33;6.40;;;4.23;;
12135;SDS011;6131;56.420;15.548;2022-11-15T09:28:59;5.97;;;4.33;;
12135;SDS011;6131;56.420;15.548;2022-11-15T09:31:26;9.63;;;4.20;;
12135;SDS011;6131;56.420;15.548;2022-11-15T09:33:52;5.77;;;3.70;;
12135;SDS011;6131;56.420;15.548;2022-11-15T09:36:18;5.03;;;3.87;;
12135;SDS011;6131;56.420;15.548;2022-11-15T09:38:44;6.67;;;4.53;;
12135;SDS011;6131;56.420;15.548;2022-11-15T09:49:06;7.03;;;4.13;;
12135;SDS011;6131;56.420;15.548;2022-11-15T09:51:34;6.43;;;4.20;;
12135;SDS011;6131;56.420;15.548;2022-11-15T09:54:02;5.87;;;3.90;;
12135;SDS011;6131;56.420;15.548;2022-11-15T09:56:30;6.47;;;4.00;;
12135;SDS011;6131;56.420;15.548;2022-11-15T09:59:00;6.40;;;4.20;;
12135;SDS011;6131;56.420;15.548;2022-11-15T10:04:13;4.93;;;3.87;;
12135;SDS011;6131;56.420;15.548;2022-11-15T10:06:42;5.27;;;3.93;;
12135;SDS011;6131;56.420;15.548;2022-11-15T10:12:00;5.80;;;4.20;;
12135;SDS011;6131;56.420;15.548;2022-11-15T10:14:27;5.10;;;3.90;;
12135;SDS011;6131;56.420;15.548;2022-11-15T10:20:15;5.80;;;3.40;;
12135;SDS011;6131;56.420;15.548;2022-11-15T10:22:38;5.87;;;3.50;;
12135;SDS011;6131;56.420;15.548;2022-11-15T10:27:34;4.53;;;3.30;;
12135;SDS011;6131;56.420;15.548;2022-11-15T10:30:00;4.33;;;3.53;;
12135;SDS011;6131;56.420;15.548;2022-11-15T10:32:26;5.77;;;3.73;;
12135;SDS011;6131;56.420;15.548;2022-11-15T10:34:52;4.27;;;2.87;;
12135;SDS011;6131;56.420;15.548;2022-11-15T10:37:28;4.93;;;3.57;;
12135;SDS011;6131;56.420;15.548;2022-11-15T10:40:04;4.23;;;3.20;;
12135;SDS011;6131;56.420;15.548;2022-11-15T10:42:30;4.10;;;3.03;;
12135;SDS011;6131;56.420;15.548;2022-11-15T10:44:56;4.53;;;2.67;;
12135;SDS011;6131;56.420;15.548;2022-11-15T10:47:32;4.27;;;3.00;;
12135;SDS011;6131;56.420;15.548;2022-11-15T10:49:59;4.73;;;3.20;;
12135;SDS011;6131;56.420;15.548;2022-11-15T10:52:25;4.90;;;3.10;;
12135;SDS011;6131;56.420;15.548;2022-11-15T10:55:00;4.90;;;3.07;;
12135;SDS011;6131;56.420;15.548;2022-11-15T10:57:31;4.83;;;2.93;;
12135;SDS011;6131;56.420;15.548;2022-11-15T10:59:59;4.10;;;2.87;;
12135;SDS011;6131;56.420;15.548;2022-11-15T11:02:36;3.65;;;2.85;;
12135;SDS011;6131;56.420;15.548;2022-11-15T11:05:21;3.77;;;2.80;;
12135;SDS011;6131;56.420;15.548;2022-11-15T11:07:54;3.33;;;2.60;;
12135;SDS011;6131;56.420;15.548;2022-11-15T11:10:21;6.07;;;2.83;;
12135;SDS011;6131;56.420;15.548;2022-11-15T11:12:47;4.27;;;2.70;;
12135;SDS011;6131;56.420;15.548;2022-11-15T11:15:14;3.60;;;2.60;;
12135;SDS011;6131;56.420;15.548;2022-11-15T11:20:18;3.90;;;2.37;;
12135;SDS011;6131;56.420;15.548;2022-11-15T11:27:53;5.10;;;2.57;;
12135;SDS011;6131;56.420;15.548;2022-11-15T11:33:10;5.80;;;2.53;;
12135;SDS011;6131;56.420;15.548;2022-11-15T11:38:25;4.67;;;2.73;;
12135;SDS011;6131;56.420;15.548;2022-11-15T11:48:33;4.93;;;2.80;;
12135;SDS011;6131;56.420;15.548;2022-11-15T11:51:23;4.00;;;2.70;;
12135;SDS011;6131;56.420;15.548;2022-11-15T11:53:57;3.27;;;2.50;;
12135;SDS011;6131;56.420;15.548;2022-11-15T11:56:28;4.47;;;2.80;;
12135;SDS011;6131;56.420;15.548;2022-11-15T11:58:57;6.30;;;3.10;;
12135;SDS011;6131;56.420;15.548;2022-11-15T12:01:28;3.10;;;2.40;;
12135;SDS011;6131;56.420;15.548;2022-11-15T12:04:12;5.57;;;2.63;;
12135;SDS011;6131;56.420;15.548;2022-11-15T12:06:50;3.67;;;2.60;;
12135;SDS011;6131;56.420;15.548;2022-11-15T12:14:22;5.37;;;2.77;;
12135;SDS011;6131;56.420;15.548;2022-11-15T12:16:50;8.43;;;2.77;;
12135;SDS011;6131;56.420;15.548;2022-11-15T12:19:16;5.10;;;2.83;;
12135;SDS011;6131;56.420;15.548;2022-11-15T12:27:03;3.73;;;2.90;;
12135;SDS011;6131;56.420;15.548;2022-11-15T12:29:38;4.40;;;2.90;;
12135;SDS011;6131;56.420;15.548;2022-11-15T12:32:05;5.97;;;2.80;;
12135;SDS011;6131;56.420;15.548;2022-11-15T12:34:41;3.93;;;2.80;;
12135;SDS011;6131;56.420;15.548;2022-11-15T12:42:40;3.17;;;2.20;;
12135;SDS011;6131;56.420;15.548;2022-11-15T12:45:24;6.70;;;2.30;;
12135;SDS011;6131;56.420;15.548;2022-11-15T12:47:50;3.70;;;2.07;;
12135;SDS011;6131;56.420;15.548;2022-11-15T12:50:16;4.33;;;2.20;;
12135;SDS011;6131;56.420;15.548;2022-11-15T12:53:28;5.57;;;1.90;;
12135;SDS011;6131;56.420;15.548;2022-11-15T12:55:29;1.73;;;1.50;;
12135;SDS011;6131;56.420;15.548;2022-11-15T12:57:55;3.87;;;1.47;;
12135;SDS011;6131;56.420;15.548;2022-11-15T13:00:41;3.30;;;1.60;;
12135;SDS011;6131;56.420;15.548;2022-11-15T13:03:22;3.00;;;1.70;;
12135;SDS011;6131;56.420;15.548;2022-11-15T13:05:53;1.93;;;1.47;;
12135;SDS011;6131;56.420;15.548;2022-11-15T13:13:50;2.40;;;1.10;;
12135;SDS011;6131;56.420;15.548;2022-11-15T13:16:20;2.70;;;0.83;;
12135;SDS011;6131;56.420;15.548;2022-11-15T13:18:55;2.87;;;1.10;;
12135;SDS011;6131;56.420;15.548;2022-11-15T13:21:23;1.57;;;0.77;;
12135;SDS011;6131;56.420;15.548;2022-11-15T13:24:10;2.13;;;0.60;;
12135;SDS011;6131;56.420;15.548;2022-11-15T13:26:37;1.13;;;0.80;;
12135;SDS011;6131;56.420;15.548;2022-11-15T13:29:04;0.80;;;0.67;;
12135;SDS011;6131;56.420;15.548;2022-11-15T13:33:58;0.77;;;0.47;;
12135;SDS011;6131;56.420;15.548;2022-11-15T13:36:26;0.67;;;0.50;;
12135;SDS011;6131;56.420;15.548;2022-11-15T13:38:54;0.83;;;0.67;;
12135;SDS011;6131;56.420;15.548;2022-11-15T13:41:22;1.33;;;0.60;;
12135;SDS011;6131;56.420;15.548;2022-11-15T13:43:49;1.57;;;0.60;;
12135;SDS011;6131;56.420;15.548;2022-11-15T13:48:55;1.00;;;0.60;;
12135;SDS011;6131;56.420;15.548;2022-11-15T13:54:20;2.37;;;0.70;;
12135;SDS011;6131;56.420;15.548;2022-11-15T13:56:52;3.60;;;0.80;;
12135;SDS011;6131;56.420;15.548;2022-11-15T14:00:03;2.03;;;0.90;;
12135;SDS011;6131;56.420;15.548;2022-11-15T14:02:43;2.40;;;1.00;;
12135;SDS011;6131;56.420;15.548;2022-11-15T14:05:16;2.00;;;1.10;;
12135;SDS011;6131;56.420;15.548;2022-11-15T14:07:55;3.00;;;1.40;;
12135;SDS011;6131;56.420;15.548;2022-11-15T14:12:51;0.90;;;0.80;;
12135;SDS011;6131;56.420;15.548;2022-11-15T14:17:56;1.67;;;0.90;;
12135;SDS011;6131;56.420;15.548;2022-11-15T14:22:56;0.70;;;0.60;;
12135;SDS011;6131;56.420;15.548;2022-11-15T14:25:32;2.30;;;0.90;;
12135;SDS011;6131;56.420;15.548;2022-11-15T14:30:38;1.03;;;0.60;;
12135;SDS011;6131;56.420;15.548;2022-11-15T14:33:18;1.43;;;0.70;;
12135;SDS011;6131;56.420;15.548;2022-11-15T14:35:44;0.60;;;0.60;;
12135;SDS011;6131;56.420;15.548;2022-11-15T14:38:10;1.70;;;0.97;;
12135;SDS011;6131;56.420;15.548;2022-11-15T14:40:36;1.67;;;0.73;;
12135;SDS011;6131;56.420;15.548;2022-11-15T14:43:02;0.67;;;0.60;;
12135;SDS011;6131;56.420;15.548;2022-11-15T14:45:28;0.80;;;0.60;;
12135;SDS011;6131;56.420;15.548;2022-11-15T14:47:54;1.00;;;0.70;;
12135;SDS011;6131;56.420;15.548;2022-11-15T14:50:21;1.37;;;0.60;;
12135;SDS011;6131;56.420;15.548;2022-11-15T14:52:47;0.90;;;0.50;;
12135;SDS011;6131;56.420;15.548;2022-11-15T14:55:26;1.20;;;0.60;;
12135;SDS011;6131;56.420;15.548;2022-11-15T14:57:53;1.00;;;0.60;;
12135;SDS011;6131;56.420;15.548;2022-11-15T15:00:20;1.00;;;0.73;;
12135;SDS011;6131;56.420;15.548;2022-11-15T15:02:46;1.57;;;0.60;;
12135;SDS011;6131;56.420;15.548;2022-11-15T15:05:14;0.83;;;0.40;;
12135;SDS011;6131;56.420;15.548;2022-11-15T15:07:40;1.20;;;0.40;;
12135;SDS011;6131;56.420;15.548;2022-11-15T15:10:06;1.87;;;0.50;;
12135;SDS011;6131;56.420;15.548;2022-11-15T15:12:32;1.13;;;0.50;;
12135;SDS011;6131;56.420;15.548;2022-11-15T15:14:58;1.20;;;0.50;;
12135;SDS011;6131;56.420;15.548;2022-11-15T15:17:24;3.40;;;0.40;;
12135;SDS011;6131;56.420;15.548;2022-11-15T15:19:50;1.03;;;0.53;;
12135;SDS011;6131;56.420;15.548;2022-11-15T15:22:17;0.77;;;0.50;;
12135;SDS011;6131;56.420;15.548;2022-11-15T15:24:44;0.87;;;0.40;;
12135;SDS011;6131;56.420;15.548;2022-11-15T15:27:10;2.40;;;0.30;;
12135;SDS011;6131;56.420;15.548;2022-11-15T15:29:36;0.90;;;0.50;;
12135;SDS011;6131;56.420;15.548;2022-11-15T15:32:02;0.90;;;0.50;;
12135;SDS011;6131;56.420;15.548;2022-11-15T15:34:29;0.60;;;0.50;;
12135;SDS011;6131;56.420;15.548;2022-11-15T15:39:33;1.30;;;0.53;;
12135;SDS011;6131;56.420;15.548;2022-11-15T15:41:59;1.33;;;0.50;;
12135;SDS011;6131;56.420;15.548;2022-11-15T15:44:25;2.33;;;0.50;;
12135;SDS011;6131;56.420;15.548;2022-11-15T15:46:51;2.47;;;0.53;;
12135;SDS011;6131;56.420;15.548;2022-11-15T15:49:17;1.10;;;0.43;;
12135;SDS011;6131;56.420;15.548;2022-11-15T15:51:43;1.73;;;0.60;;
12135;SDS011;6131;56.420;15.548;2022-11-15T15:54:09;1.23;;;0.63;;
12135;SDS011;6131;56.420;15.548;2022-11-15T15:56:35;2.03;;;0.60;;
12135;SDS011;6131;56.420;15.548;2022-11-15T15:59:01;2.33;;;0.70;;
12135;SDS011;6131;56.420;15.548;2022-11-15T16:01:27;3.50;;;1.43;;
12135;SDS011;6131;56.420;15.548;2022-11-15T16:03:53;1.20;;;0.60;;
12135;SDS011;6131;56.420;15.548;2022-11-15T16:06:32;2.33;;;0.60;;
12135;SDS011;6131;56.420;15.548;2022-11-15T16:08:59;3.67;;;0.90;;
12135;SDS011;6131;56.420;15.548;2022-11-15T16:11:25;1.97;;;0.70;;
12135;SDS011;6131;56.420;15.548;2022-11-15T16:13:51;0.83;;;0.50;;
12135;SDS011;6131;56.420;15.548;2022-11-15T16:16:17;1.30;;;0.70;;
12135;SDS011;6131;56.420;15.548;2022-11-15T16:18:44;5.53;;;0.90;;
12135;SDS011;6131;56.420;15.548;2022-11-15T16:21:10;2.33;;;0.70;;
12135;SDS011;6131;56.420;15.548;2022-11-15T16:23:36;3.33;;;0.60;;
12135;SDS011;6131;56.420;15.548;2022-11-15T16:26:04;2.90;;;0.70;;
12135;SDS011;6131;56.420;15.548;2022-11-15T16:28:35;1.93;;;0.70;;
12135;SDS011;6131;56.420;15.548;2022-11-15T16:31:05;4.20;;;0.90;;
12135;SDS011;6131;56.420;15.548;2022-11-15T16:33:31;3.13;;;0.60;;
12135;SDS011;6131;56.420;15.548;2022-11-15T16:35:58;0.97;;;0.50;;
12135;SDS011;6131;56.420;15.548;2022-11-15T16:38:24;1.00;;;0.53;;
12135;SDS011;6131;56.420;15.548;2022-11-15T16:40:50;2.87;;;0.63;;
12135;SDS011;6131;56.420;15.548;2022-11-15T16:43:16;2.03;;;0.80;;
12135;SDS011;6131;56.420;15.548;2022-11-15T16:45:42;1.33;;;0.57;;
12135;SDS011;6131;56.420;15.548;2022-11-15T16:48:26;1.97;;;1.00;;
12135;SDS011;6131;56.420;15.548;2022-11-15T16:50:56;3.40;;;0.80;;
12135;SDS011;6131;56.420;15.548;2022-11-15T16:53:23;2.70;;;0.70;;
12135;SDS011;6131;56.420;15.548;2022-11-15T16:55:49;1.43;;;0.50;;